Flight Track Log - Related Links

Times and Time Zones

All times are in EDT time to prevent confusion due to time zone crossing. See the A6-EWE flight status page for this flight to view local times or setup timezone preferences in your user account.

Time Position Orientation Groundspeed Altitude Reporting Facility
EDT Latitude Longitude Course Direction KTS MPH feet Rate Location/Type
Wed 02:21:39 AM 25.2690 55.3430 302° West 201 231 700  Level FlightAware ADS-B
Wed 02:22:09 AM 25.2850 55.3130 301° West 212 244 1,800 1,950 Climbing FlightAware ADS-B
Wed 02:22:19 AM 25.2890 55.3060 302° West 222 255 2,000 1,500 Climbing FlightAware ADS-B
Wed 02:22:49 AM 25.3110 55.2790 312° West 251 289 2,800 1,745 Climbing FlightAware ADS-B
Wed 02:23:14 AM 25.3390 55.2610 330° Northwest 273 314 3,600 2,100 Climbing FlightAware ADS-B
Wed 02:23:29 AM 25.3540 55.2520 332° Northwest 277 319 4,200 2,400 Climbing FlightAware ADS-B
Wed 02:23:54 AM 25.3810 55.2360 332° Northwest 284 327 5,200 1,309 Climbing FlightAware ADS-B
Wed 02:24:24 AM 25.4120 55.2180 332° Northwest 284 327 5,400 1,500 Climbing FlightAware ADS-B
Wed 02:24:34 AM 25.4380 55.2190 North 318 366 6,200 2,400 Climbing FlightAware ADS-B
Wed 02:24:59 AM 25.4720 55.2390 28° Northeast 351 404 6,800 2,182 Climbing FlightAware ADS-B
Wed 02:25:29 AM 25.5150 55.2750 37° Northeast 365 420 8,200 2,492 Climbing FlightAware ADS-B
Wed 02:26:04 AM 25.5570 55.3170 42° Northeast 377 434 9,500 2,333 Climbing FlightAware ADS-B
Wed 02:26:59 AM 25.6220 55.3900 45° Northeast 388 447 11,700 2,400 Climbing FlightAware ADS-B
Wed 02:27:34 AM 25.6680 55.4400 44° Northeast 394 453 13,100 933 Climbing FlightAware ADS-B
Wed 02:28:29 AM 25.7330 55.5120 45° Northeast 394 453 13,100 100 Level FlightAware ADS-B
Wed 05:46:47 AM 52.1380 63.3290 11° North 504 580 33,000 100 Climbing FlightAware ADS-B
Wed 05:47:27 AM 52.2260 63.3490 North 507 583 33,000  Level FlightAware ADS-B
Wed 05:48:02 AM 52.3200 63.3680 North 506 582 33,000  Level FlightAware ADS-B
Wed 05:48:47 AM 52.4110 63.3860 North 506 582 33,000  Level FlightAware ADS-B
Wed 05:49:27 AM 52.4900 63.4020 North 506 582 33,000  Level FlightAware ADS-B
Wed 05:50:12 AM 52.6210 63.4290 North 504 580 33,000  Level FlightAware ADS-B
Wed 05:51:02 AM 52.7400 63.4530 North 506 582 33,000  Level FlightAware ADS-B
Wed 05:51:37 AM 52.8190 63.4700 North 506 582 33,000  Level FlightAware ADS-B
Wed 05:52:12 AM 52.9070 63.4880 North 508 585 33,000  Level FlightAware ADS-B
Wed 05:53:07 AM 53.0310 63.5140 North 508 585 33,000  Level FlightAware ADS-B
Wed 05:53:47 AM 53.1230 63.5330 North 509 586 33,000  Level FlightAware ADS-B
Wed 05:54:27 AM 53.2200 63.5620 10° North 518 596 33,000  Level FlightAware ADS-B
Wed 05:55:12 AM 53.3190 63.6200 19° North 523 602 33,000  Level FlightAware ADS-B
Wed 05:56:07 AM 53.4480 63.7030 21° North 522 601 33,000  Level FlightAware ADS-B
Wed 05:56:47 AM 53.5350 63.7590 21° North 521 600 33,000  Level FlightAware ADS-B
Wed 05:57:32 AM 53.6360 63.8230 21° North 521 600 33,000  Level FlightAware ADS-B
Wed 05:58:12 AM 53.7260 63.8810 21° North 521 600 33,000  Level FlightAware ADS-B
Wed 05:58:57 AM 53.8230 63.9430 21° North 520 598 33,000  Level FlightAware ADS-B
Wed 05:59:37 AM 53.9150 64.0030 21° North 520 598 33,000  Level FlightAware ADS-B
Wed 06:00:22 AM 54.0160 64.0690 21° North 520 598 33,000  Level FlightAware ADS-B
Wed 06:01:02 AM 54.1010 64.1250 21° North 521 600 33,000  Level FlightAware ADS-B
Wed 06:01:42 AM 54.1900 64.1830 21° North 520 598 33,000  Level FlightAware ADS-B
Wed 06:02:17 AM 54.2710 64.2370 21° North 520 598 33,000  Level FlightAware ADS-B
Wed 06:03:02 AM 54.3700 64.3160 25° Northeast 527 606 33,000  Level FlightAware ADS-B
Wed 06:03:52 AM 54.4760 64.4180 29° Northeast 528 608 33,000  Level FlightAware ADS-B
Wed 06:04:32 AM 54.5550 64.4960 30° Northeast 529 609 33,000  Level FlightAware ADS-B
Wed 06:04:57 AM 54.6170 64.5560 29° Northeast 528 608 33,000  Level FlightAware ADS-B
Wed 06:05:42 AM 54.7110 64.6490 30° Northeast 529 609 33,000  Level FlightAware ADS-B
Wed 06:06:27 AM 54.8060 64.7430 30° Northeast 528 608 33,000  Level FlightAware ADS-B
Wed 06:07:07 AM 54.8890 64.8260 30° Northeast 529 609 33,000  Level FlightAware ADS-B
Wed 06:07:47 AM 54.9780 64.9140 30° Northeast 529 609 33,000  Level FlightAware ADS-B
Wed 06:08:32 AM 55.0750 65.0120 30° Northeast 528 608 33,000  Level FlightAware ADS-B
Wed 06:09:12 AM 55.1620 65.0980 29° Northeast 528 608 33,000  Level FlightAware ADS-B
Wed 06:09:57 AM 55.2520 65.1890 30° Northeast 528 608 33,000  Level FlightAware ADS-B
Wed 06:10:37 AM 55.3350 65.2730 30° Northeast 529 609 33,000  Level FlightAware ADS-B
Wed 06:12:12 AM 55.5390 65.4130 21° North 495 570 33,000  Level FlightAware ADS-B
Wed 06:12:42 AM 55.6130 65.4110 359° North 488 562 33,000  Level FlightAware ADS-B
Wed 06:13:27 AM 55.7140 65.4070 359° North 485 558 33,000  Level FlightAware ADS-B
Wed 06:14:07 AM 55.8000 65.4030 359° North 484 557 33,000  Level FlightAware ADS-B
Wed 06:14:47 AM 55.8960 65.3990 359° North 484 557 33,000  Level FlightAware ADS-B
Wed 06:15:32 AM 55.9890 65.3960 359° North 485 558 33,000  Level FlightAware ADS-B
Wed 06:16:12 AM 56.0800 65.3910 358° North 484 557 33,000  Level FlightAware ADS-B
Wed 06:16:57 AM 56.1830 65.3830 358° North 484 557 33,000  Level FlightAware ADS-B
Wed 06:17:32 AM 56.2660 65.3770 358° North 485 558 33,000  Level FlightAware ADS-B
Wed 06:18:32 AM 56.4000 65.3670 358° North 484 557 33,000  Level FlightAware ADS-B
Wed 06:19:17 AM 56.4910 65.3610 358° North 482 555 33,000  Level FlightAware ADS-B
Wed 06:19:57 AM 56.5850 65.3540 358° North 480 552 33,000  Level FlightAware ADS-B
Wed 06:20:32 AM 56.6620 65.3490 358° North 481 554 33,000  Level FlightAware ADS-B
Wed 06:21:12 AM 56.7530 65.3420 358° North 480 552 33,000  Level FlightAware ADS-B
Wed 06:22:02 AM 56.8610 65.3350 358° North 482 555 33,000  Level FlightAware ADS-B
Wed 06:22:42 AM 56.9570 65.3290 358° North 484 557 33,000  Level FlightAware ADS-B
Wed 06:23:17 AM 57.0330 65.3240 358° North 484 557 33,000  Level FlightAware ADS-B
Wed 06:24:02 AM 57.1340 65.3180 358° North 483 556 33,000  Level FlightAware ADS-B
Wed 06:24:37 AM 57.2100 65.3310 North 499 574 33,000  Level FlightAware ADS-B
Wed 06:25:27 AM 57.3110 65.3640 10° North 503 579 33,000  Level FlightAware ADS-B
Wed 06:26:17 AM 57.4310 65.4100 12° North 503 579 33,000  Level FlightAware ADS-B
Wed 06:26:52 AM 57.5110 65.4390 11° North 502 578 33,000  Level FlightAware ADS-B
Wed 06:27:37 AM 57.6000 65.4720 11° North 502 578 33,000  Level FlightAware ADS-B
Wed 06:29:07 AM 57.5110 65.4390 191° South 507 583 33,000  Level FlightAware ADS-B
Wed 06:29:52 AM 57.9150 65.5890 11° North 505 581 33,000  Level FlightAware ADS-B
Wed 06:30:37 AM 58.0080 65.6180 North 499 574 33,000  Level FlightAware ADS-B
Wed 06:31:37 AM 58.1550 65.6460 North 495 570 33,000  Level FlightAware ADS-B
Wed 06:32:12 AM 58.2460 65.6620 North 492 566 33,000  Level FlightAware ADS-B
Wed 06:33:02 AM 58.3420 65.6780 North 491 565 33,000  Level FlightAware ADS-B
Wed 06:33:57 AM 58.4730 65.7020 North 490 564 33,000  Level FlightAware ADS-B
Wed 06:34:52 AM 58.5980 65.7260 North 492 566 33,000  Level FlightAware ADS-B
Wed 06:35:37 AM 58.6880 65.7420 North 492 566 33,000  Level FlightAware ADS-B
Wed 06:36:12 AM 58.7820 65.7600 North 497 572 33,000  Level FlightAware ADS-B
Wed 06:36:57 AM 58.8770 65.7770 North 498 573 33,000  Level FlightAware ADS-B
Wed 06:44:27 AM 59.9000 65.9380 North 33,000  Level FlightAware ADS-B
Wed 06:45:07 AM 59.9830 65.9410 North 482 555 33,000  Level FlightAware ADS-B
Wed 06:45:52 AM 60.0740 65.9440 North 482 555 33,000  Level FlightAware ADS-B
Wed 06:46:27 AM 59.9830 65.9410 181° South 474 545 33,000  Level FlightAware ADS-B
Wed 06:46:47 AM 60.2080 65.9480 North 475 547 33,000  Level FlightAware ADS-B
Wed 06:47:27 AM 60.2810 65.9510 North 475 547 33,000  Level FlightAware ADS-B
Wed 06:51:57 AM 60.8880 65.9720 North 467 537 33,000  Level FlightAware ADS-B
Wed 06:53:07 AM 60.9650 65.9750 North 467 537 33,000  Level FlightAware ADS-B
Wed 06:53:57 AM 60.9120 65.9730 181° South 471 542 33,000  Level FlightAware ADS-B
Wed 06:54:37 AM 61.2350 65.9850 North 472 543 33,000  Level FlightAware ADS-B
Wed 06:55:27 AM 61.3400 65.9890 North 476 548 33,000  Level FlightAware ADS-B
Wed 06:56:07 AM 61.4300 65.9920 North 476 548 33,000  Level FlightAware ADS-B
Wed 06:56:52 AM 61.5220 65.9950 North 478 550 33,000  Level FlightAware ADS-B
Wed 06:57:37 AM 61.6290 66.0000 North 479 551 33,000  Level FlightAware ADS-B
Wed 06:58:07 AM 61.6950 66.0020 North 479 551 33,000  Level FlightAware ADS-B
Wed 06:59:42 AM 61.8310 66.0070 North 479 551 33,000  Level FlightAware ADS-B
Wed 07:00:12 AM 61.7630 66.0050 181° South 478 550 33,000  Level FlightAware ADS-B
Wed 07:01:12 AM 62.0930 66.0170 North 476 548 33,000 76 Level FlightAware ADS-B
Wed 07:12:47 AM 63.6090 66.6520 11° North 34,000 82 Climbing FlightAware ADS-B
Wed 07:13:22 AM 63.6830 66.6880 12° North 478 550 34,000  Level FlightAware ADS-B
Wed 07:14:17 AM 63.8060 66.6950 North 471 542 34,000  Level FlightAware ADS-B
Wed 07:14:57 AM 63.8940 66.6910 359° North 471 542 34,000  Level FlightAware ADS-B
Wed 07:15:47 AM 63.9970 66.6870 359° North 470 541 34,000  Level FlightAware ADS-B
Wed 07:16:27 AM 64.0830 66.6840 359° North 469 540 34,000  Level FlightAware ADS-B
Wed 07:17:07 AM 64.1740 66.6810 359° North 470 541 34,000  Level FlightAware ADS-B
Wed 07:17:47 AM 64.2590 66.6790 359° North 471 542 34,000  Level FlightAware ADS-B
Wed 07:18:27 AM 64.3480 66.6770 359° North 473 544 34,000  Level FlightAware ADS-B
Wed 07:19:07 AM 64.4340 66.6750 359° North 472 543 34,000  Level FlightAware ADS-B
Wed 07:19:57 AM 64.5380 66.6720 359° North 471 542 34,000  Level FlightAware ADS-B
Wed 07:20:32 AM 64.6170 66.6700 359° North 470 541 34,000  Level FlightAware ADS-B
Wed 07:21:12 AM 64.7020 66.6680 359° North 471 542 34,000  Level FlightAware ADS-B
Wed 07:21:57 AM 64.7990 66.6650 359° North 470 541 34,000  Level FlightAware ADS-B
Wed 07:22:47 AM 64.9080 66.6620 359° North 472 543 34,000  Level FlightAware ADS-B
Wed 07:23:27 AM 64.9960 66.6600 359° North 471 542 34,000  Level FlightAware ADS-B
Wed 07:24:07 AM 65.0940 66.6570 359° North 471 542 34,000  Level FlightAware ADS-B
Wed 07:24:52 AM 65.1790 66.6530 359° North 471 542 34,000  Level FlightAware ADS-B
Wed 07:25:32 AM 65.2700 66.6510 359° North 472 543 34,000  Level FlightAware ADS-B
Wed 07:26:12 AM 65.3560 66.6490 359° North 472 543 34,000  Level FlightAware ADS-B
Wed 07:26:52 AM 65.4460 66.6460 359° North 472 543 34,000  Level FlightAware ADS-B
Wed 07:27:42 AM 65.5500 66.6430 359° North 474 545 34,000  Level FlightAware ADS-B
Wed 07:28:22 AM 65.6370 66.6400 359° North 475 547 34,000  Level FlightAware ADS-B
Wed 07:29:02 AM 65.7270 66.6370 359° North 475 547 34,000  Level FlightAware ADS-B
Wed 07:29:42 AM 65.8150 66.6340 359° North 475 547 34,000  Level FlightAware ADS-B
Wed 07:30:22 AM 65.9020 66.6310 359° North 476 548 34,000  Level FlightAware ADS-B
Wed 07:31:02 AM 65.9910 66.6280 359° North 476 548 34,000  Level FlightAware ADS-B
Wed 07:31:52 AM 66.1050 66.6240 359° North 476 548 34,000  Level FlightAware ADS-B
Wed 07:32:32 AM 66.1840 66.6220 359° North 477 549 34,000  Level FlightAware ADS-B
Wed 07:33:12 AM 66.2750 66.6180 359° North 477 549 34,000  Level FlightAware ADS-B
Wed 07:33:52 AM 66.3610 66.6150 359° North 482 555 34,000  Level FlightAware ADS-B
Wed 07:34:32 AM 66.4520 66.6120 359° North 486 559 34,000  Level FlightAware ADS-B
Wed 07:35:22 AM 66.5620 66.6090 359° North 482 555 34,000  Level FlightAware ADS-B
Wed 07:36:17 AM 66.6850 66.6110 360° North 480 552 34,000  Level FlightAware ADS-B
Wed 07:36:57 AM 66.7730 66.6170 North 484 557 34,000  Level FlightAware ADS-B
Wed 07:37:37 AM 66.8630 66.6230 North 478 550 34,000  Level FlightAware ADS-B
Wed 07:38:17 AM 66.9540 66.6270 North 473 544 34,000  Level FlightAware ADS-B
Wed 07:39:07 AM 67.0570 66.6320 North 474 545 34,000  Level FlightAware ADS-B
Wed 07:39:47 AM 67.1420 66.6350 North 476 548 34,000  Level FlightAware ADS-B
Wed 07:40:27 AM 67.2170 66.6390 North 476 548 34,000 Level FlightAware ADS-B
Wed 11:13:32 AM 85.0000 -85.0000 218° Southwest 455 524 36,000 Climbing ETMS Enhanced Traffic Management System
Wed 11:57:00 AM 80.0000 -105.0000 195° South 448 516 36,000  Level ETMS Enhanced Traffic Management System
Wed 12:49:45 PM 75.0000 -110.0000 199° South 458 527 36,000 15 Level ETMS Enhanced Traffic Management System
Wed 02:12:57 PM 63.5000 -120.0833 199° South 460 529 38,000 24 Climbing Edmonton Center
Wed 02:13:57 PM 63.3833 -120.1833 201° Southwest 460 529 38,000  Level Edmonton Center
Wed 02:14:57 PM 63.2333 -120.2500 191° South 460 529 38,000 150 Level Edmonton Center
Wed 02:15:57 PM 63.1333 -120.3167 197° South 460 529 38,300 400 Climbing Edmonton Center
Wed 02:16:57 PM 63.0000 -120.4000 196° South 450 518 38,800 350 Climbing Edmonton Center
Wed 02:17:57 PM 62.8667 -120.4833 196° South 460 529 39,000 100 Climbing Edmonton Center
Wed 02:18:57 PM 62.7500 -120.5667 198° South 460 529 39,000  Level Edmonton Center
Wed 02:19:57 PM 62.6333 -120.6167 358° North 470 541 39,000  Level Edmonton Center
Wed 02:20:57 PM 62.5000 -120.7000 196° South 470 541 39,000  Level Edmonton Center
Wed 02:21:57 PM 62.3833 -120.7833 198° South 450 518 39,000  Level Edmonton Center
Wed 02:22:57 PM 62.2500 -120.8333 190° South 440 506 39,000  Level Edmonton Center
Wed 02:23:57 PM 62.1500 -120.9167 201° Southwest 440 506 39,000  Level Edmonton Center
Wed 02:24:57 PM 62.0167 -120.9667 190° South 440 506 39,000  Level Edmonton Center
Wed 02:25:58 PM 61.9000 -121.0500 199° South 450 518 39,000  Level Edmonton Center
Wed 02:26:58 PM 61.7667 -121.1333 196° South 440 506 39,000  Level Edmonton Center
Wed 02:27:57 PM 61.6500 -121.1667 188° South 440 506 39,000  Level Edmonton Center
Wed 02:28:57 PM 61.5333 -121.2500 199° South 440 506 39,000  Level Edmonton Center
Wed 02:29:57 PM 61.4167 -121.3333 199° South 450 518 39,000  Level Edmonton Center
Wed 02:30:57 PM 61.2833 -121.3833 190° South 450 518 39,000  Level Edmonton Center
Wed 02:31:57 PM 61.1667 -121.4667 199° South 450 518 39,000  Level Edmonton Center
Wed 02:32:57 PM 61.0500 -121.5000 188° South 450 518 39,000  Level Edmonton Center
Wed 02:33:57 PM 60.9167 -121.5833 197° South 450 518 39,000  Level Edmonton Center
Wed 02:34:57 PM 60.8000 -121.6667 199° South 460 529 39,000  Level Edmonton Center
Wed 02:35:57 PM 60.6667 -121.7000 187° South 450 518 39,000  Level Edmonton Center
Wed 02:36:57 PM 60.5500 -121.7833 199° South 440 506 39,000  Level Edmonton Center
Wed 02:37:57 PM 60.4500 -121.8333 194° South 430 495 39,000  Level Edmonton Center
Wed 02:39:00 PM 60.3160 -121.8942 193° South  Level FlightAware Approximate
Wed 02:46:00 PM 59.4220 -122.2878 193° South  Level FlightAware Approximate
Wed 02:47:00 PM 59.2942 -122.3424 192° South  Level FlightAware Approximate
Wed 02:48:00 PM 59.1664 -122.3965 192° South  Level FlightAware Approximate
Wed 02:49:00 PM 59.0385 -122.4502 192° South  Level FlightAware Approximate
Wed 02:50:00 PM 58.9106 -122.5035 192° South  Level FlightAware Approximate
Wed 02:51:00 PM 58.7827 -122.5564 192° South  Level FlightAware Approximate
Wed 02:51:53 PM 58.7000 -122.3333 192° South 480 552 39,000  Level Edmonton Center
Wed 02:52:00 PM 58.6548 -122.6090 192° South  Level FlightAware Approximate
Wed 02:52:53 PM 58.5667 -122.3667 187° South 460 529 39,000  Level Edmonton Center
Wed 02:53:00 PM 58.5269 -122.6611 192° South  Level FlightAware Approximate
Wed 02:53:53 PM 58.4500 -122.4000 189° South 450 518 39,000  Level Edmonton Center
Wed 02:54:00 PM 58.3989 -122.7129 192° South  Level FlightAware Approximate
Wed 02:54:54 PM 58.3167 -122.4333 187° South 450 518 39,000  Level Edmonton Center
Wed 02:55:00 PM 58.2710 -122.7643 192° South  Level FlightAware Approximate
Wed 02:55:53 PM 58.2000 -122.4500 184° South 450 518 39,000  Level Edmonton Center
Wed 02:56:00 PM 58.1429 -122.8154 192° South  Level FlightAware Approximate
Wed 02:56:53 PM 58.0667 -122.4833 188° South 450 518 39,000  Level Edmonton Center
Wed 02:57:00 PM 58.0149 -122.8660 192° South  Level FlightAware Approximate
Wed 02:57:53 PM 57.9500 -122.5167 189° South 460 529 39,000  Level Edmonton Center
Wed 02:58:53 PM 57.8167 -122.5500 188° South 460 529 39,000  Level Edmonton Center
Wed 02:59:54 PM 57.7000 -122.5500 180° South 460 529 39,000  Level Edmonton Center
Wed 03:00:54 PM 57.5667 -122.5833 188° South 450 518 39,000  Level Edmonton Center
Wed 03:01:54 PM 57.4333 -122.6167 188° South 450 518 39,000  Level Edmonton Center
Wed 03:02:54 PM 57.3167 -122.6167 180° South 460 529 39,000  Level Edmonton Center
Wed 03:03:54 PM 57.1667 -122.6500 187° South 460 529 39,000  Level Edmonton Center
Wed 03:04:53 PM 57.0667 -122.6833 190° South 460 529 39,000  Level Edmonton Center
Wed 03:05:53 PM 56.9167 -122.7167 187° South 460 529 39,000  Level Edmonton Center
Wed 03:06:53 PM 56.8000 -122.7167 180° South 460 529 39,000  Level Edmonton Center
Wed 03:07:53 PM 56.6667 -122.7500 188° South 460 529 39,000  Level Edmonton Center
Wed 03:08:53 PM 56.5500 -122.7833 189° South 460 529 39,000  Level Edmonton Center
Wed 03:09:53 PM 56.4000 -122.8000 184° South 460 529 39,000  Level Edmonton Center
Wed 03:10:53 PM 56.3000 -122.8167 185° South 450 518 39,000  Level Edmonton Center
Wed 03:11:53 PM 56.1667 -122.8500 188° South 460 529 39,000  Level Edmonton Center
Wed 03:12:53 PM 56.0333 -122.8833 188° South 450 518 39,000  Level Edmonton Center
Wed 03:13:53 PM 55.9167 -122.8833 180° South 460 529 39,000  Level Edmonton Center
Wed 03:14:53 PM 55.7667 -122.9000 184° South 460 529 39,000  Level Edmonton Center
Wed 03:15:53 PM 55.6500 -122.9333 189° South 460 529 39,000  Level Edmonton Center
Wed 03:16:53 PM 55.5167 -122.9667 188° South 460 529 39,000  Level Edmonton Center
Wed 03:17:12 PM 55.5167 -122.9167 90° East 460 529 39,000  Level Vancouver Center
Wed 03:18:12 PM 55.3833 -122.9500 188° South 460 529 39,000  Level Vancouver Center
Wed 03:19:12 PM 55.2667 -122.9500 180° South 460 529 39,000  Level Vancouver Center
Wed 03:20:12 PM 55.1333 -122.9833 188° South 460 529 39,000  Level Vancouver Center
Wed 03:21:12 PM 55.0000 -123.0167 188° South 460 529 39,000  Level Vancouver Center
Wed 03:22:12 PM 54.8833 -123.0167 180° South 460 529 39,000  Level Vancouver Center
Wed 03:23:12 PM 54.7500 -123.0167 180° South 460 529 39,000  Level Vancouver Center
Wed 03:24:12 PM 54.6167 -123.0167 180° South 460 529 39,000  Level Vancouver Center
Wed 03:25:12 PM 54.4833 -123.0167 180° South 460 529 39,000  Level Vancouver Center
Wed 03:26:12 PM 54.3667 -123.0167 180° South 460 529 39,000  Level Vancouver Center
Wed 03:27:12 PM 54.2333 -123.0333 184° South 460 529 39,000  Level Vancouver Center
Wed 03:28:12 PM 54.1000 -123.0333 180° South 460 529 39,000  Level Vancouver Center
Wed 03:29:12 PM 53.9833 -123.0333 180° South 470 541 39,000  Level Vancouver Center
Wed 03:30:12 PM 53.8500 -123.0333 180° South 470 541 39,000  Level Vancouver Center
Wed 03:31:12 PM 53.7167 -123.0333 180° South 470 541 39,000  Level Vancouver Center
Wed 03:32:12 PM 53.6000 -123.0333 180° South 450 518 39,000  Level Vancouver Center
Wed 03:33:12 PM 53.4500 -123.0333 180° South 470 541 39,000  Level Vancouver Center
Wed 03:34:12 PM 53.3333 -123.0500 185° South 470 541 39,000  Level Vancouver Center
Wed 03:35:12 PM 53.2000 -123.0500 180° South 470 541 39,000  Level Vancouver Center
Wed 03:36:12 PM 53.0667 -123.0500 180° South 470 541 39,000  Level Vancouver Center
Wed 03:37:12 PM 52.9500 -123.0500 180° South 470 541 39,000  Level Vancouver Center
Wed 03:38:12 PM 52.7833 -123.0500 180° South 470 541 39,000  Level Vancouver Center
Wed 03:39:12 PM 52.6667 -123.0500 180° South 470 541 39,000  Level Vancouver Center
Wed 03:40:12 PM 52.5333 -123.0500 180° South 470 541 39,000  Level Vancouver Center
Wed 03:41:12 PM 52.4000 -123.0667 184° South 470 541 39,000  Level Vancouver Center
Wed 03:42:12 PM 52.2667 -123.0667 180° South 470 541 39,000  Level Vancouver Center
Wed 03:43:12 PM 52.1500 -123.0667 180° South 470 541 39,000  Level Vancouver Center
Wed 03:44:12 PM 52.0167 -123.0667 180° South 470 541 39,000  Level Vancouver Center
Wed 03:45:12 PM 51.8833 -123.0667 180° South 470 541 39,000  Level Vancouver Center
Wed 03:46:12 PM 51.7500 -123.0667 180° South 470 541 39,000  Level Vancouver Center
Wed 03:47:12 PM 51.6167 -123.0667 180° South 470 541 39,000  Level Vancouver Center
Wed 03:53:12 PM 50.8650 -123.1080 180° South 465 535 39,000  Level FlightAware ADS-B
Wed 03:53:52 PM 50.7890 -123.1100 181° South 466 536 39,000  Level FlightAware ADS-B
Wed 03:54:32 PM 50.6980 -123.1120 181° South 467 537 39,000  Level FlightAware ADS-B
Wed 03:55:17 PM 50.6030 -123.1140 181° South 468 539 39,000  Level FlightAware ADS-B
Wed 03:55:57 PM 50.5140 -123.1160 181° South 470 541 39,000  Level FlightAware ADS-B
Wed 03:56:42 PM 50.4150 -123.1190 181° South 471 542 39,000  Level FlightAware ADS-B
Wed 03:57:22 PM 50.3330 -123.1210 181° South 472 543 39,000  Level FlightAware ADS-B
Wed 03:58:07 PM 50.2310 -123.1230 181° South 472 543 39,000  Level FlightAware ADS-B
Wed 03:58:47 PM 50.1430 -123.1250 181° South 472 543 39,000  Level FlightAware ADS-B
Wed 03:59:27 PM 50.0570 -123.1270 181° South 472 543 39,000  Level FlightAware ADS-B
Wed 04:00:12 PM 49.9570 -123.1290 181° South 472 543 39,000  Level FlightAware ADS-B
Wed 04:00:52 PM 49.8740 -123.1310 181° South 472 543 39,000 -141 Level FlightAware ADS-B
Wed 04:01:37 PM 49.7760 -123.1330 181° South 470 541 38,800 -918 Descending FlightAware ADS-B
Wed 04:02:17 PM 49.6870 -123.1350 181° South 464 534 37,700 -1,725 Descending FlightAware ADS-B
Wed 04:02:57 PM 49.6040 -123.1370 181° South 455 524 36,500 -1,906 Descending FlightAware ADS-B
Wed 04:03:42 PM 49.5060 -123.1390 181° South 435 501 35,000 -2,250 Descending FlightAware ADS-B
Wed 04:04:17 PM 49.4400 -123.1410 181° South 451 519 33,500 -1,875 Descending FlightAware ADS-B
Wed 04:05:02 PM 49.3430 -123.1430 181° South 448 516 32,500 -1,650 Descending FlightAware ADS-B
Wed 04:06:57 PM 49.1140 -123.1480 181° South 434 499 29,100 -1,816 Descending FlightAware ADS-B
Wed 04:08:07 PM 48.9740 -123.1200 173° South 442 509 26,900 -1,886 Descending FlightAware ADS-B
Wed 04:09:17 PM 48.8340 -123.0780 169° South 426 490 24,700 -1,843 Descending FlightAware ADS-B
Wed 04:10:27 PM 48.6970 -123.0380 169° South 423 487 22,600 -1,781 Descending FlightAware ADS-B
Wed 04:11:52 PM 48.5360 -122.9920 169° South 409 471 20,100 -1,742 Descending FlightAware ADS-B
Wed 04:13:02 PM 48.4090 -122.9550 169° South 390 449 18,100 -1,714 Descending FlightAware ADS-B
Wed 04:14:12 PM 48.2840 -122.9190 169° South 393 452 16,100 -1,691 Descending FlightAware ADS-B
Wed 04:14:52 PM 48.2110 -122.8990 170° South 379 436 15,000 -1,694 Descending FlightAware ADS-B
Wed 04:15:37 PM 48.1310 -122.8760 169° South 373 429 13,700 -1,575 Descending FlightAware ADS-B
Wed 04:16:12 PM 48.0800 -122.8620 170° South 377 434 12,900 -1,527 Descending FlightAware ADS-B
Wed 04:16:32 PM 48.0400 -122.8360 157° South 380 437 12,300 -1,371 Descending FlightAware ADS-B
Wed 04:16:47 PM 48.0200 -122.8090 138° Southeast 372 428 12,100 -1,091 Descending FlightAware ADS-B
Wed 04:17:27 PM 47.9810 -122.7310 127° Southeast 354 407 11,300 -1,271 Descending FlightAware ADS-B
Wed 04:18:12 PM 47.9360 -122.6470 129° Southeast 335 386 10,300 -1,286 Descending FlightAware ADS-B
Wed 04:18:37 PM 47.9120 -122.6020 128° Southeast 315 362 9,800 -1,309 Descending FlightAware ADS-B
Wed 04:19:07 PM 47.8840 -122.5510 129° Southeast 307 353 9,100 -1,091 Descending FlightAware ADS-B
Wed 04:19:32 PM 47.8620 -122.5130 131° Southeast 296 341 8,800 -750 Descending FlightAware ADS-B
Wed 04:19:47 PM 47.8490 -122.4920 133° Southeast 288 331 8,600 -1,467 Descending FlightAware ADS-B
Wed 04:20:17 PM 47.8200 -122.4470 134° Southeast 277 319 7,700 -1,745 Descending FlightAware ADS-B
Wed 04:20:42 PM 47.7960 -122.4220 145° Southeast 279 321 7,000 -1,418 Descending FlightAware ADS-B
Wed 04:21:12 PM 47.7610 -122.3950 153° Southeast 272 313 6,400 -646 Descending FlightAware ADS-B
Wed 04:21:47 PM 47.7260 -122.3660 151° Southeast 256 295 6,300 -1,308 Descending FlightAware ADS-B
Wed 04:22:30 PM 47.6775 -122.3308 151° Southeast 246 283 4,700 -1,742 Descending Seattle Center
Wed 04:22:49 PM 47.6594 -122.3178 154° Southeast 233 268 4,500 -900 Descending Seattle Center
Wed 04:23:30 PM 47.6214 -122.3075 170° South 215 247 3,800 -1,100 Descending Seattle Center
Wed 04:23:49 PM 47.6031 -122.3064 178° South 204 235 3,400 -1,377 Descending Seattle Center
Wed 04:24:31 PM 47.5639 -122.3072 181° South 204 235 2,400 -1,343 Descending Seattle Center
Wed 04:24:56 PM 47.5392 -122.3086 182° South 198 228 1,900 -885 Descending Seattle Center
Wed 04:25:32 PM 47.5161 -122.3075 178° South 189 217 1,500 -787 Descending Seattle Center
Wed 04:25:57 PM 47.4944 -122.3072 180° South 159 183 1,100 -689 Descending Seattle Center
Wed 04:26:33 PM 47.4775 -122.3081 182° South 141 162 800 -433 Descending Seattle Center
Wed 04:27:34 PM 47.4364 -122.3081 180° South 131 151 400 -393 Descending Seattle Center
Wed 04:29:00 PM 47.4333 -122.3000 North  Level FlightAware Approximate

Login

Don't have an account? Register now (free) for customized features, flight alerts, and more!